sensor_id;sensor_type;location;lat;lon;timestamp;temperature;humidity
78541;SHT31;67835;51.968;5.646;2023-08-01T00:01:03;19.9;72.5
78541;SHT31;67835;51.968;5.646;2023-08-01T00:03:32;19.9;72.2
78541;SHT31;67835;51.968;5.646;2023-08-01T00:06:01;19.9;72.4
78541;SHT31;67835;51.968;5.646;2023-08-01T00:08:29;19.8;72.7
78541;SHT31;67835;51.968;5.646;2023-08-01T00:10:58;19.8;72.3
78541;SHT31;67835;51.968;5.646;2023-08-01T00:13:26;19.8;72.2
78541;SHT31;67835;51.968;5.646;2023-08-01T00:15:54;19.8;72.1
78541;SHT31;67835;51.968;5.646;2023-08-01T00:18:23;19.8;72.1
78541;SHT31;67835;51.968;5.646;2023-08-01T00:20:54;19.7;72.1
78541;SHT31;67835;51.968;5.646;2023-08-01T00:23:24;19.7;72.3
78541;SHT31;67835;51.968;5.646;2023-08-01T00:25:53;19.7;72.6
78541;SHT31;67835;51.968;5.646;2023-08-01T00:28:22;19.6;72.7
78541;SHT31;67835;51.968;5.646;2023-08-01T00:30:50;19.6;72.7
78541;SHT31;67835;51.968;5.646;2023-08-01T00:33:19;19.6;72.9
78541;SHT31;67835;51.968;5.646;2023-08-01T00:35:55;19.6;73.0
78541;SHT31;67835;51.968;5.646;2023-08-01T00:38:23;19.5;73.1
78541;SHT31;67835;51.968;5.646;2023-08-01T00:40:52;19.5;73.2
78541;SHT31;67835;51.968;5.646;2023-08-01T00:43:22;19.5;73.2
78541;SHT31;67835;51.968;5.646;2023-08-01T00:45:53;19.5;73.3
78541;SHT31;67835;51.968;5.646;2023-08-01T00:48:24;19.5;73.3
78541;SHT31;67835;51.968;5.646;2023-08-01T00:50:53;19.5;73.4
78541;SHT31;67835;51.968;5.646;2023-08-01T00:53:22;19.5;73.4
78541;SHT31;67835;51.968;5.646;2023-08-01T00:55:52;19.5;73.4
78541;SHT31;67835;51.968;5.646;2023-08-01T00:58:21;19.5;73.6
78541;SHT31;67835;51.968;5.646;2023-08-01T01:00:50;19.5;73.5
78541;SHT31;67835;51.968;5.646;2023-08-01T01:03:19;19.4;73.8
78541;SHT31;67835;51.968;5.646;2023-08-01T01:05:56;19.4;74.1
78541;SHT31;67835;51.968;5.646;2023-08-01T01:08:26;19.4;74.2
78541;SHT31;67835;51.968;5.646;2023-08-01T01:10:55;19.4;74.4
78541;SHT31;67835;51.968;5.646;2023-08-01T01:13:23;19.4;74.3
78541;SHT31;67835;51.968;5.646;2023-08-01T01:15:52;19.5;74.3
78541;SHT31;67835;51.968;5.646;2023-08-01T01:18:21;19.5;74.2
78541;SHT31;67835;51.968;5.646;2023-08-01T01:20:49;19.5;74.2
78541;SHT31;67835;51.968;5.646;2023-08-01T01:23:19;19.5;74.0
78541;SHT31;67835;51.968;5.646;2023-08-01T01:25:50;19.5;73.9
78541;SHT31;67835;51.968;5.646;2023-08-01T01:28:20;19.5;73.8
78541;SHT31;67835;51.968;5.646;2023-08-01T01:30:49;19.5;73.6
78541;SHT31;67835;51.968;5.646;2023-08-01T01:33:20;19.5;73.5
78541;SHT31;67835;51.968;5.646;2023-08-01T01:35:48;19.5;73.7
78541;SHT31;67835;51.968;5.646;2023-08-01T01:38:18;19.5;73.1
78541;SHT31;67835;51.968;5.646;2023-08-01T01:40:51;19.5;72.6
78541;SHT31;67835;51.968;5.646;2023-08-01T01:43:19;19.5;72.4
78541;SHT31;67835;51.968;5.646;2023-08-01T01:45:47;19.4;72.4
78541;SHT31;67835;51.968;5.646;2023-08-01T01:48:18;19.3;72.5
78541;SHT31;67835;51.968;5.646;2023-08-01T01:50:46;19.3;72.6
78541;SHT31;67835;51.968;5.646;2023-08-01T01:53:14;19.2;72.8
78541;SHT31;67835;51.968;5.646;2023-08-01T01:55:43;19.1;73.0
78541;SHT31;67835;51.968;5.646;2023-08-01T01:58:11;19.1;73.2
78541;SHT31;67835;51.968;5.646;2023-08-01T02:00:40;19.0;73.5
78541;SHT31;67835;51.968;5.646;2023-08-01T02:03:08;19.0;73.8
78541;SHT31;67835;51.968;5.646;2023-08-01T02:05:39;18.9;74.1
78541;SHT31;67835;51.968;5.646;2023-08-01T02:08:08;18.9;74.4
78541;SHT31;67835;51.968;5.646;2023-08-01T02:10:37;18.8;74.7
78541;SHT31;67835;51.968;5.646;2023-08-01T02:13:07;18.8;74.9
78541;SHT31;67835;51.968;5.646;2023-08-01T02:15:36;18.7;75.0
78541;SHT31;67835;51.968;5.646;2023-08-01T02:18:05;18.7;75.3
78541;SHT31;67835;51.968;5.646;2023-08-01T02:20:33;18.6;75.4
78541;SHT31;67835;51.968;5.646;2023-08-01T02:23:02;18.6;75.5
78541;SHT31;67835;51.968;5.646;2023-08-01T02:25:30;18.6;75.6
78541;SHT31;67835;51.968;5.646;2023-08-01T02:27:59;18.5;75.7
78541;SHT31;67835;51.968;5.646;2023-08-01T02:30:27;18.5;75.9
78541;SHT31;67835;51.968;5.646;2023-08-01T02:32:56;18.5;75.8
78541;SHT31;67835;51.968;5.646;2023-08-01T02:35:25;18.5;75.5
78541;SHT31;67835;51.968;5.646;2023-08-01T02:37:55;18.5;75.4
78541;SHT31;67835;51.968;5.646;2023-08-01T02:40:24;18.5;75.6
78541;SHT31;67835;51.968;5.646;2023-08-01T02:42:55;18.4;75.7
78541;SHT31;67835;51.968;5.646;2023-08-01T02:45:23;18.4;75.7
78541;SHT31;67835;51.968;5.646;2023-08-01T02:47:52;18.4;75.8
78541;SHT31;67835;51.968;5.646;2023-08-01T02:50:20;18.4;76.1
78541;SHT31;67835;51.968;5.646;2023-08-01T02:52:49;18.3;76.4
78541;SHT31;67835;51.968;5.646;2023-08-01T02:55:18;18.3;76.7
78541;SHT31;67835;51.968;5.646;2023-08-01T02:57:46;18.3;77.0
78541;SHT31;67835;51.968;5.646;2023-08-01T03:00:16;18.3;77.0
78541;SHT31;67835;51.968;5.646;2023-08-01T03:02:44;18.4;77.1
78541;SHT31;67835;51.968;5.646;2023-08-01T03:05:15;18.4;77.1
78541;SHT31;67835;51.968;5.646;2023-08-01T03:07:43;18.4;77.2
78541;SHT31;67835;51.968;5.646;2023-08-01T03:10:14;18.4;77.2
78541;SHT31;67835;51.968;5.646;2023-08-01T03:12:42;18.4;77.2
78541;SHT31;67835;51.968;5.646;2023-08-01T03:15:11;18.4;77.0
78541;SHT31;67835;51.968;5.646;2023-08-01T03:17:40;18.4;76.9
78541;SHT31;67835;51.968;5.646;2023-08-01T03:20:10;18.5;76.9
78541;SHT31;67835;51.968;5.646;2023-08-01T03:22:41;18.5;77.0
78541;SHT31;67835;51.968;5.646;2023-08-01T03:25:10;18.5;77.1
78541;SHT31;67835;51.968;5.646;2023-08-01T03:27:39;18.5;77.0
78541;SHT31;67835;51.968;5.646;2023-08-01T03:30:09;18.5;76.9
78541;SHT31;67835;51.968;5.646;2023-08-01T03:32:38;18.6;76.6
78541;SHT31;67835;51.968;5.646;2023-08-01T03:35:08;18.6;76.5
78541;SHT31;67835;51.968;5.646;2023-08-01T03:37:37;18.6;76.4
78541;SHT31;67835;51.968;5.646;2023-08-01T03:40:07;18.6;76.5
78541;SHT31;67835;51.968;5.646;2023-08-01T03:42:37;18.6;76.5
78541;SHT31;67835;51.968;5.646;2023-08-01T03:45:08;18.6;76.6
78541;SHT31;67835;51.968;5.646;2023-08-01T03:47:39;18.6;76.5
78541;SHT31;67835;51.968;5.646;2023-08-01T03:50:09;18.6;76.6
78541;SHT31;67835;51.968;5.646;2023-08-01T03:52:40;18.6;76.6
78541;SHT31;67835;51.968;5.646;2023-08-01T03:55:09;18.6;76.6
78541;SHT31;67835;51.968;5.646;2023-08-01T03:57:38;18.6;76.6
78541;SHT31;67835;51.968;5.646;2023-08-01T04:00:10;18.6;76.7
78541;SHT31;67835;51.968;5.646;2023-08-01T04:02:41;18.6;76.6
78541;SHT31;67835;51.968;5.646;2023-08-01T04:05:10;18.6;76.6
78541;SHT31;67835;51.968;5.646;2023-08-01T04:07:39;18.6;76.4
78541;SHT31;67835;51.968;5.646;2023-08-01T04:10:08;18.6;76.4
78541;SHT31;67835;51.968;5.646;2023-08-01T04:12:37;18.6;76.4
78541;SHT31;67835;51.968;5.646;2023-08-01T04:15:11;18.6;76.4
78541;SHT31;67835;51.968;5.646;2023-08-01T04:17:40;18.6;76.4
78541;SHT31;67835;51.968;5.646;2023-08-01T04:20:12;18.7;76.5
78541;SHT31;67835;51.968;5.646;2023-08-01T04:22:42;18.7;76.5
78541;SHT31;67835;51.968;5.646;2023-08-01T04:25:10;18.7;76.4
78541;SHT31;67835;51.968;5.646;2023-08-01T04:27:38;18.7;76.3
78541;SHT31;67835;51.968;5.646;2023-08-01T04:30:09;18.7;76.1
78541;SHT31;67835;51.968;5.646;2023-08-01T04:32:37;18.7;76.1
78541;SHT31;67835;51.968;5.646;2023-08-01T04:35:09;18.7;75.9
78541;SHT31;67835;51.968;5.646;2023-08-01T04:37:38;18.7;75.9
78541;SHT31;67835;51.968;5.646;2023-08-01T04:40:07;18.7;75.8
78541;SHT31;67835;51.968;5.646;2023-08-01T04:42:36;18.7;75.8
78541;SHT31;67835;51.968;5.646;2023-08-01T04:45:06;18.7;75.8
78541;SHT31;67835;51.968;5.646;2023-08-01T04:47:35;18.7;75.9
78541;SHT31;67835;51.968;5.646;2023-08-01T04:50:05;18.7;75.9
78541;SHT31;67835;51.968;5.646;2023-08-01T04:52:34;18.7;76.0
78541;SHT31;67835;51.968;5.646;2023-08-01T04:55:03;18.7;75.8
78541;SHT31;67835;51.968;5.646;2023-08-01T04:57:31;18.7;75.8
78541;SHT31;67835;51.968;5.646;2023-08-01T05:00:01;18.7;75.6
78541;SHT31;67835;51.968;5.646;2023-08-01T05:02:30;18.7;75.5
78541;SHT31;67835;51.968;5.646;2023-08-01T05:04:58;18.7;75.5
78541;SHT31;67835;51.968;5.646;2023-08-01T05:07:26;18.7;75.5
78541;SHT31;67835;51.968;5.646;2023-08-01T05:09:55;18.7;75.6
78541;SHT31;67835;51.968;5.646;2023-08-01T05:12:26;18.7;75.7
78541;SHT31;67835;51.968;5.646;2023-08-01T05:14:55;18.8;75.7
78541;SHT31;67835;51.968;5.646;2023-08-01T05:17:23;18.8;75.7
78541;SHT31;67835;51.968;5.646;2023-08-01T05:19:52;18.8;75.8
78541;SHT31;67835;51.968;5.646;2023-08-01T05:22:21;18.8;75.9
78541;SHT31;67835;51.968;5.646;2023-08-01T05:24:50;18.8;76.2
78541;SHT31;67835;51.968;5.646;2023-08-01T05:27:19;18.8;76.4
78541;SHT31;67835;51.968;5.646;2023-08-01T05:29:48;18.8;76.5
78541;SHT31;67835;51.968;5.646;2023-08-01T05:32:16;18.9;76.4
78541;SHT31;67835;51.968;5.646;2023-08-01T05:34:45;18.9;75.9
78541;SHT31;67835;51.968;5.646;2023-08-01T05:37:13;19.0;75.9
78541;SHT31;67835;51.968;5.646;2023-08-01T05:39:42;19.0;75.4
78541;SHT31;67835;51.968;5.646;2023-08-01T05:42:10;19.0;75.4
78541;SHT31;67835;51.968;5.646;2023-08-01T05:44:40;19.1;75.6
78541;SHT31;67835;51.968;5.646;2023-08-01T05:47:10;19.1;76.2
78541;SHT31;67835;51.968;5.646;2023-08-01T05:49:38;19.1;75.5
78541;SHT31;67835;51.968;5.646;2023-08-01T05:52:09;19.2;75.6
78541;SHT31;67835;51.968;5.646;2023-08-01T05:54:38;19.3;74.9
78541;SHT31;67835;51.968;5.646;2023-08-01T05:57:08;19.3;75.0
78541;SHT31;67835;51.968;5.646;2023-08-01T05:59:38;19.4;75.2
78541;SHT31;67835;51.968;5.646;2023-08-01T06:02:07;19.5;74.5
78541;SHT31;67835;51.968;5.646;2023-08-01T06:04:35;19.5;74.3
78541;SHT31;67835;51.968;5.646;2023-08-01T06:07:05;19.6;73.8
78541;SHT31;67835;51.968;5.646;2023-08-01T06:09:37;19.6;74.2
78541;SHT31;67835;51.968;5.646;2023-08-01T06:12:06;19.7;73.1
78541;SHT31;67835;51.968;5.646;2023-08-01T06:14:37;19.7;74.1
78541;SHT31;67835;51.968;5.646;2023-08-01T06:17:05;19.8;73.6
78541;SHT31;67835;51.968;5.646;2023-08-01T06:19:36;19.9;72.9
78541;SHT31;67835;51.968;5.646;2023-08-01T06:22:05;19.9;72.9
78541;SHT31;67835;51.968;5.646;2023-08-01T06:24:34;20.0;72.6
78541;SHT31;67835;51.968;5.646;2023-08-01T06:27:03;20.0;72.9
78541;SHT31;67835;51.968;5.646;2023-08-01T06:29:32;20.1;72.2
78541;SHT31;67835;51.968;5.646;2023-08-01T06:32:01;20.2;71.4
78541;SHT31;67835;51.968;5.646;2023-08-01T06:34:30;20.2;70.9
78541;SHT31;67835;51.968;5.646;2023-08-01T06:36:59;20.3;70.2
78541;SHT31;67835;51.968;5.646;2023-08-01T06:39:27;20.3;70.4
78541;SHT31;67835;51.968;5.646;2023-08-01T06:41:56;20.3;70.6
78541;SHT31;67835;51.968;5.646;2023-08-01T06:44:24;20.4;69.9
78541;SHT31;67835;51.968;5.646;2023-08-01T06:46:54;20.5;69.7
78541;SHT31;67835;51.968;5.646;2023-08-01T06:49:24;20.5;70.2
78541;SHT31;67835;51.968;5.646;2023-08-01T06:51:53;20.6;69.7
78541;SHT31;67835;51.968;5.646;2023-08-01T06:54:22;20.6;69.3
78541;SHT31;67835;51.968;5.646;2023-08-01T06:56:51;20.7;70.4
78541;SHT31;67835;51.968;5.646;2023-08-01T06:59:19;20.8;70.1
78541;SHT31;67835;51.968;5.646;2023-08-01T07:01:48;20.9;68.8
78541;SHT31;67835;51.968;5.646;2023-08-01T07:04:17;21.1;68.2
78541;SHT31;67835;51.968;5.646;2023-08-01T07:06:48;21.3;67.7
78541;SHT31;67835;51.968;5.646;2023-08-01T07:09:16;21.4;66.6
78541;SHT31;67835;51.968;5.646;2023-08-01T07:11:45;21.6;65.6
78541;SHT31;67835;51.968;5.646;2023-08-01T07:14:15;21.9;63.6
78541;SHT31;67835;51.968;5.646;2023-08-01T07:16:43;22.1;64.4
78541;SHT31;67835;51.968;5.646;2023-08-01T07:19:12;22.4;63.0
78541;SHT31;67835;51.968;5.646;2023-08-01T07:21:40;22.7;62.6
78541;SHT31;67835;51.968;5.646;2023-08-01T07:24:10;23.0;61.1
78541;SHT31;67835;51.968;5.646;2023-08-01T07:26:40;23.2;60.1
78541;SHT31;67835;51.968;5.646;2023-08-01T07:29:09;23.5;58.9
78541;SHT31;67835;51.968;5.646;2023-08-01T07:31:42;23.6;56.8
78541;SHT31;67835;51.968;5.646;2023-08-01T07:34:12;23.7;55.9
78541;SHT31;67835;51.968;5.646;2023-08-01T07:36:43;23.8;56.6
78541;SHT31;67835;51.968;5.646;2023-08-01T07:39:14;23.8;57.2
78541;SHT31;67835;51.968;5.646;2023-08-01T07:41:42;23.9;55.8
78541;SHT31;67835;51.968;5.646;2023-08-01T07:44:12;24.0;56.2
78541;SHT31;67835;51.968;5.646;2023-08-01T07:46:41;24.1;56.3
78541;SHT31;67835;51.968;5.646;2023-08-01T07:49:09;24.3;53.8
78541;SHT31;67835;51.968;5.646;2023-08-01T07:51:39;24.4;54.0
78541;SHT31;67835;51.968;5.646;2023-08-01T07:54:08;24.5;53.6
78541;SHT31;67835;51.968;5.646;2023-08-01T07:56:37;24.5;53.7
78541;SHT31;67835;51.968;5.646;2023-08-01T07:59:05;24.5;53.2
78541;SHT31;67835;51.968;5.646;2023-08-01T08:01:35;24.4;52.7
78541;SHT31;67835;51.968;5.646;2023-08-01T08:04:06;24.2;54.8
78541;SHT31;67835;51.968;5.646;2023-08-01T08:06:36;24.0;55.8
78541;SHT31;67835;51.968;5.646;2023-08-01T08:09:05;23.8;55.9
78541;SHT31;67835;51.968;5.646;2023-08-01T08:11:33;23.6;56.1
78541;SHT31;67835;51.968;5.646;2023-08-01T08:14:03;23.5;56.2
78541;SHT31;67835;51.968;5.646;2023-08-01T08:16:32;23.4;56.5
78541;SHT31;67835;51.968;5.646;2023-08-01T08:19:03;23.5;57.2
78541;SHT31;67835;51.968;5.646;2023-08-01T08:21:32;23.8;56.2
78541;SHT31;67835;51.968;5.646;2023-08-01T08:24:00;24.1;55.9
78541;SHT31;67835;51.968;5.646;2023-08-01T08:26:30;24.5;54.8
78541;SHT31;67835;51.968;5.646;2023-08-01T08:29:00;24.6;54.5
78541;SHT31;67835;51.968;5.646;2023-08-01T08:31:29;24.8;54.0
78541;SHT31;67835;51.968;5.646;2023-08-01T08:33:58;25.0;52.7
78541;SHT31;67835;51.968;5.646;2023-08-01T08:36:27;25.3;51.8
78541;SHT31;67835;51.968;5.646;2023-08-01T08:38:57;25.6;49.7
78541;SHT31;67835;51.968;5.646;2023-08-01T08:41:27;25.8;49.0
78541;SHT31;67835;51.968;5.646;2023-08-01T08:43:59;26.0;47.3
78541;SHT31;67835;51.968;5.646;2023-08-01T08:46:30;26.0;48.2
78541;SHT31;67835;51.968;5.646;2023-08-01T08:49:00;26.0;48.2
78541;SHT31;67835;51.968;5.646;2023-08-01T08:51:30;26.0;47.4
78541;SHT31;67835;51.968;5.646;2023-08-01T08:54:01;26.1;47.2
78541;SHT31;67835;51.968;5.646;2023-08-01T08:56:32;26.1;47.3
78541;SHT31;67835;51.968;5.646;2023-08-01T08:59:02;26.1;48.3
78541;SHT31;67835;51.968;5.646;2023-08-01T09:01:31;26.2;48.0
78541;SHT31;67835;51.968;5.646;2023-08-01T09:04:01;26.3;47.3
78541;SHT31;67835;51.968;5.646;2023-08-01T09:06:32;26.5;46.1
78541;SHT31;67835;51.968;5.646;2023-08-01T09:09:11;26.7;45.5
78541;SHT31;67835;51.968;5.646;2023-08-01T09:11:44;26.8;44.9
78541;SHT31;67835;51.968;5.646;2023-08-01T09:14:13;26.9;45.0
78541;SHT31;67835;51.968;5.646;2023-08-01T09:16:44;27.2;45.0
78541;SHT31;67835;51.968;5.646;2023-08-01T09:19:19;27.4;43.7
78541;SHT31;67835;51.968;5.646;2023-08-01T09:21:48;27.5;43.3
78541;SHT31;67835;51.968;5.646;2023-08-01T09:24:19;27.5;42.7
78541;SHT31;67835;51.968;5.646;2023-08-01T09:26:49;27.4;42.3
78541;SHT31;67835;51.968;5.646;2023-08-01T09:29:20;27.3;42.3
78541;SHT31;67835;51.968;5.646;2023-08-01T09:31:48;27.2;42.5
78541;SHT31;67835;51.968;5.646;2023-08-01T09:34:22;27.1;43.4
78541;SHT31;67835;51.968;5.646;2023-08-01T09:36:57;27.0;43.6
78541;SHT31;67835;51.968;5.646;2023-08-01T09:39:25;26.9;44.5
78541;SHT31;67835;51.968;5.646;2023-08-01T09:41:59;26.8;44.8
78541;SHT31;67835;51.968;5.646;2023-08-01T09:44:29;26.9;44.8
78541;SHT31;67835;51.968;5.646;2023-08-01T09:47:00;27.2;43.9
78541;SHT31;67835;51.968;5.646;2023-08-01T09:49:30;27.3;42.9
78541;SHT31;67835;51.968;5.646;2023-08-01T09:51:59;27.3;44.0
78541;SHT31;67835;51.968;5.646;2023-08-01T09:54:28;27.3;42.9
78541;SHT31;67835;51.968;5.646;2023-08-01T09:56:56;27.2;42.9
78541;SHT31;67835;51.968;5.646;2023-08-01T09:59:26;27.1;43.5
78541;SHT31;67835;51.968;5.646;2023-08-01T10:01:57;27.0;43.9
78541;SHT31;67835;51.968;5.646;2023-08-01T10:04:29;27.1;43.3
78541;SHT31;67835;51.968;5.646;2023-08-01T10:07:07;27.3;42.8
78541;SHT31;67835;51.968;5.646;2023-08-01T10:09:37;27.5;42.9
78541;SHT31;67835;51.968;5.646;2023-08-01T10:12:09;27.6;40.9
78541;SHT31;67835;51.968;5.646;2023-08-01T10:14:42;27.8;40.6
78541;SHT31;67835;51.968;5.646;2023-08-01T10:17:12;28.0;39.7
78541;SHT31;67835;51.968;5.646;2023-08-01T10:19:42;28.2;39.1
78541;SHT31;67835;51.968;5.646;2023-08-01T10:22:11;28.3;40.8
78541;SHT31;67835;51.968;5.646;2023-08-01T10:24:41;28.5;40.3
78541;SHT31;67835;51.968;5.646;2023-08-01T10:27:14;28.9;40.3
78541;SHT31;67835;51.968;5.646;2023-08-01T10:29:43;29.2;39.8
78541;SHT31;67835;51.968;5.646;2023-08-01T10:32:14;29.5;38.1
78541;SHT31;67835;51.968;5.646;2023-08-01T10:34:52;29.8;38.3
78541;SHT31;67835;51.968;5.646;2023-08-01T10:37:20;30.1;35.9
78541;SHT31;67835;51.968;5.646;2023-08-01T10:39:58;30.3;37.0
78541;SHT31;67835;51.968;5.646;2023-08-01T10:42:39;30.4;36.8
78541;SHT31;67835;51.968;5.646;2023-08-01T10:45:22;30.4;37.7
78541;SHT31;67835;51.968;5.646;2023-08-01T10:47:51;30.5;37.5
78541;SHT31;67835;51.968;5.646;2023-08-01T10:50:20;30.5;35.8
78541;SHT31;67835;51.968;5.646;2023-08-01T10:52:48;30.5;36.9
78541;SHT31;67835;51.968;5.646;2023-08-01T10:55:19;30.6;37.2
78541;SHT31;67835;51.968;5.646;2023-08-01T10:57:51;30.8;37.5
78541;SHT31;67835;51.968;5.646;2023-08-01T11:00:20;30.9;35.6
78541;SHT31;67835;51.968;5.646;2023-08-01T11:02:51;31.0;35.6
78541;SHT31;67835;51.968;5.646;2023-08-01T11:05:20;31.0;36.4
78541;SHT31;67835;51.968;5.646;2023-08-01T11:08:01;31.0;36.4
78541;SHT31;67835;51.968;5.646;2023-08-01T11:10:31;31.0;35.1
78541;SHT31;67835;51.968;5.646;2023-08-01T11:13:00;31.0;35.5
78541;SHT31;67835;51.968;5.646;2023-08-01T11:15:29;30.8;34.9
78541;SHT31;67835;51.968;5.646;2023-08-01T11:17:58;30.6;34.9
78541;SHT31;67835;51.968;5.646;2023-08-01T11:20:28;30.4;35.5
78541;SHT31;67835;51.968;5.646;2023-08-01T11:22:58;30.1;36.4
78541;SHT31;67835;51.968;5.646;2023-08-01T11:25:39;29.7;37.0
78541;SHT31;67835;51.968;5.646;2023-08-01T11:28:11;29.4;37.3
78541;SHT31;67835;51.968;5.646;2023-08-01T11:30:40;29.3;36.8
78541;SHT31;67835;51.968;5.646;2023-08-01T11:33:18;29.2;37.4
78541;SHT31;67835;51.968;5.646;2023-08-01T11:35:50;29.1;37.2
78541;SHT31;67835;51.968;5.646;2023-08-01T11:38:21;28.9;38.5
78541;SHT31;67835;51.968;5.646;2023-08-01T11:40:52;28.8;38.8
78541;SHT31;67835;51.968;5.646;2023-08-01T11:43:21;28.6;37.8
78541;SHT31;67835;51.968;5.646;2023-08-01T11:45:51;28.5;39.8
78541;SHT31;67835;51.968;5.646;2023-08-01T11:48:21;28.4;42.9
78541;SHT31;67835;51.968;5.646;2023-08-01T11:50:58;28.5;41.0
78541;SHT31;67835;51.968;5.646;2023-08-01T11:53:27;28.8;40.1
78541;SHT31;67835;51.968;5.646;2023-08-01T11:55:58;29.0;39.6
78541;SHT31;67835;51.968;5.646;2023-08-01T11:58:32;29.1;38.8
78541;SHT31;67835;51.968;5.646;2023-08-01T12:01:06;29.1;38.1
78541;SHT31;67835;51.968;5.646;2023-08-01T12:03:45;29.1;37.3
78541;SHT31;67835;51.968;5.646;2023-08-01T12:06:14;29.0;37.5
78541;SHT31;67835;51.968;5.646;2023-08-01T12:08:45;28.7;40.5
78541;SHT31;67835;51.968;5.646;2023-08-01T12:11:23;28.4;42.2
78541;SHT31;67835;51.968;5.646;2023-08-01T12:14:05;28.0;42.6
78541;SHT31;67835;51.968;5.646;2023-08-01T12:16:37;27.6;43.4
78541;SHT31;67835;51.968;5.646;2023-08-01T12:19:07;27.3;44.9
78541;SHT31;67835;51.968;5.646;2023-08-01T12:21:36;27.2;46.1
78541;SHT31;67835;51.968;5.646;2023-08-01T12:24:05;27.0;44.4
78541;SHT31;67835;51.968;5.646;2023-08-01T12:26:34;26.9;43.6
78541;SHT31;67835;51.968;5.646;2023-08-01T12:29:02;26.8;44.0
78541;SHT31;67835;51.968;5.646;2023-08-01T12:31:31;26.7;42.4
78541;SHT31;67835;51.968;5.646;2023-08-01T12:34:00;26.5;43.6
78541;SHT31;67835;51.968;5.646;2023-08-01T12:36:28;26.4;43.6
78541;SHT31;67835;51.968;5.646;2023-08-01T12:38:57;26.3;43.3
78541;SHT31;67835;51.968;5.646;2023-08-01T12:41:26;26.2;44.9
78541;SHT31;67835;51.968;5.646;2023-08-01T12:43:55;26.1;44.1
78541;SHT31;67835;51.968;5.646;2023-08-01T12:46:23;26.0;44.4
78541;SHT31;67835;51.968;5.646;2023-08-01T12:48:52;25.9;45.0
78541;SHT31;67835;51.968;5.646;2023-08-01T12:51:20;25.8;45.2
78541;SHT31;67835;51.968;5.646;2023-08-01T12:53:49;25.7;44.6
78541;SHT31;67835;51.968;5.646;2023-08-01T12:56:18;25.6;46.1
78541;SHT31;67835;51.968;5.646;2023-08-01T12:58:46;25.6;46.1
78541;SHT31;67835;51.968;5.646;2023-08-01T13:01:16;25.7;46.2
78541;SHT31;67835;51.968;5.646;2023-08-01T13:03:45;25.8;46.0
78541;SHT31;67835;51.968;5.646;2023-08-01T13:06:13;25.9;45.2
78541;SHT31;67835;51.968;5.646;2023-08-01T13:08:44;25.9;43.2
78541;SHT31;67835;51.968;5.646;2023-08-01T13:11:13;25.9;44.1
78541;SHT31;67835;51.968;5.646;2023-08-01T13:13:43;26.0;45.6
78541;SHT31;67835;51.968;5.646;2023-08-01T13:16:12;26.1;47.3
78541;SHT31;67835;51.968;5.646;2023-08-01T13:18:41;26.3;45.2
78541;SHT31;67835;51.968;5.646;2023-08-01T13:21:14;26.5;43.8
78541;SHT31;67835;51.968;5.646;2023-08-01T13:23:43;26.7;45.0
78541;SHT31;67835;51.968;5.646;2023-08-01T13:26:12;26.9;44.5
78541;SHT31;67835;51.968;5.646;2023-08-01T13:28:40;27.1;44.0
78541;SHT31;67835;51.968;5.646;2023-08-01T13:31:10;27.4;42.4
78541;SHT31;67835;51.968;5.646;2023-08-01T13:33:39;27.6;41.5
78541;SHT31;67835;51.968;5.646;2023-08-01T13:36:07;27.7;40.7
78541;SHT31;67835;51.968;5.646;2023-08-01T13:38:36;27.8;40.8
78541;SHT31;67835;51.968;5.646;2023-08-01T13:41:04;27.8;39.7
78541;SHT31;67835;51.968;5.646;2023-08-01T13:43:33;27.7;39.5
78541;SHT31;67835;51.968;5.646;2023-08-01T13:46:12;27.6;39.4
78541;SHT31;67835;51.968;5.646;2023-08-01T13:48:42;27.5;39.5
78541;SHT31;67835;51.968;5.646;2023-08-01T13:51:11;27.4;41.2
78541;SHT31;67835;51.968;5.646;2023-08-01T13:53:40;27.3;41.9
78541;SHT31;67835;51.968;5.646;2023-08-01T13:56:09;27.3;41.8
78541;SHT31;67835;51.968;5.646;2023-08-01T13:58:40;27.4;41.3
78541;SHT31;67835;51.968;5.646;2023-08-01T14:01:09;27.4;41.0
78541;SHT31;67835;51.968;5.646;2023-08-01T14:03:39;27.4;41.4
78541;SHT31;67835;51.968;5.646;2023-08-01T14:06:09;27.4;42.2
78541;SHT31;67835;51.968;5.646;2023-08-01T14:08:42;27.4;41.2
78541;SHT31;67835;51.968;5.646;2023-08-01T14:11:10;27.4;41.8
78541;SHT31;67835;51.968;5.646;2023-08-01T14:13:41;27.4;43.4
78541;SHT31;67835;51.968;5.646;2023-08-01T14:16:10;27.4;41.8
78541;SHT31;67835;51.968;5.646;2023-08-01T14:18:38;27.4;41.6
78541;SHT31;67835;51.968;5.646;2023-08-01T14:21:08;27.5;41.0
78541;SHT31;67835;51.968;5.646;2023-08-01T14:23:37;27.5;41.5
78541;SHT31;67835;51.968;5.646;2023-08-01T14:26:08;27.5;40.5
78541;SHT31;67835;51.968;5.646;2023-08-01T14:28:36;27.6;38.7
78541;SHT31;67835;51.968;5.646;2023-08-01T14:31:05;27.6;39.2
78541;SHT31;67835;51.968;5.646;2023-08-01T14:33:34;27.6;38.7
78541;SHT31;67835;51.968;5.646;2023-08-01T14:36:08;27.5;38.7
78541;SHT31;67835;51.968;5.646;2023-08-01T14:38:38;27.5;39.2
78541;SHT31;67835;51.968;5.646;2023-08-01T14:41:07;27.3;39.4
78541;SHT31;67835;51.968;5.646;2023-08-01T14:43:35;27.2;40.4
78541;SHT31;67835;51.968;5.646;2023-08-01T14:46:04;26.9;40.6
78541;SHT31;67835;51.968;5.646;2023-08-01T14:48:34;26.7;41.5
78541;SHT31;67835;51.968;5.646;2023-08-01T14:51:04;26.5;41.0
78541;SHT31;67835;51.968;5.646;2023-08-01T14:53:33;26.4;41.9
78541;SHT31;67835;51.968;5.646;2023-08-01T14:56:02;26.2;41.8
78541;SHT31;67835;51.968;5.646;2023-08-01T14:58:33;26.0;42.1
78541;SHT31;67835;51.968;5.646;2023-08-01T15:01:09;25.9;43.0
78541;SHT31;67835;51.968;5.646;2023-08-01T15:03:39;25.8;43.0
78541;SHT31;67835;51.968;5.646;2023-08-01T15:06:08;25.7;43.6
78541;SHT31;67835;51.968;5.646;2023-08-01T15:08:38;25.7;44.0
78541;SHT31;67835;51.968;5.646;2023-08-01T15:11:08;25.7;43.4
78541;SHT31;67835;51.968;5.646;2023-08-01T15:13:37;25.7;44.0
78541;SHT31;67835;51.968;5.646;2023-08-01T15:16:11;25.8;43.5
78541;SHT31;67835;51.968;5.646;2023-08-01T15:18:41;25.8;43.6
78541;SHT31;67835;51.968;5.646;2023-08-01T15:21:10;25.8;43.8
78541;SHT31;67835;51.968;5.646;2023-08-01T15:23:38;25.9;45.0
78541;SHT31;67835;51.968;5.646;2023-08-01T15:26:07;25.9;45.5
78541;SHT31;67835;51.968;5.646;2023-08-01T15:28:35;26.0;44.0
78541;SHT31;67835;51.968;5.646;2023-08-01T15:31:06;26.2;42.9
78541;SHT31;67835;51.968;5.646;2023-08-01T15:33:37;26.2;43.1
78541;SHT31;67835;51.968;5.646;2023-08-01T15:36:07;26.2;43.2
78541;SHT31;67835;51.968;5.646;2023-08-01T15:38:38;26.1;43.5
78541;SHT31;67835;51.968;5.646;2023-08-01T15:41:07;25.9;44.0
78541;SHT31;67835;51.968;5.646;2023-08-01T15:43:39;25.7;44.3
78541;SHT31;67835;51.968;5.646;2023-08-01T15:46:08;25.5;45.8
78541;SHT31;67835;51.968;5.646;2023-08-01T15:48:38;25.3;44.9
78541;SHT31;67835;51.968;5.646;2023-08-01T15:51:09;25.1;45.0
78541;SHT31;67835;51.968;5.646;2023-08-01T15:53:39;24.9;45.5
78541;SHT31;67835;51.968;5.646;2023-08-01T15:56:09;24.7;45.8
78541;SHT31;67835;51.968;5.646;2023-08-01T15:58:39;24.6;45.9
78541;SHT31;67835;51.968;5.646;2023-08-01T16:01:08;24.5;46.8
78541;SHT31;67835;51.968;5.646;2023-08-01T16:03:38;24.3;46.2
78541;SHT31;67835;51.968;5.646;2023-08-01T16:06:08;24.2;49.0
78541;SHT31;67835;51.968;5.646;2023-08-01T16:08:38;24.1;50.9
78541;SHT31;67835;51.968;5.646;2023-08-01T16:11:07;23.9;51.3
78541;SHT31;67835;51.968;5.646;2023-08-01T16:13:35;23.7;52.2
78541;SHT31;67835;51.968;5.646;2023-08-01T16:16:04;23.5;54.2
78541;SHT31;67835;51.968;5.646;2023-08-01T16:18:34;23.3;54.3